Time;durP1;ratioP1;P1;durP2;ratioP2;P2;SDS_P1;SDS_P2;PMS_P1;PMS_P2;Temp;Humidity;BMP_temperature;BMP_pressure;BME280_temperature;BME280_humidity;BME280_pressure;Samples;Min_cycle;Max_cycle;Signal;HPM_P1;HPM_P2
2022/01/05 00:01:38;;;;;;;4.50;1.70;;;4.20;99.90;;;;;;5037695;28;20611;-73
2022/01/05 00:04:06;;;;;;;2.77;1.77;;;4.30;99.90;;;;;;5028183;28;20191;-72
2022/01/05 00:06:31;;;;;;;8.90;2.10;;;4.20;99.90;;;;;;5048832;28;20203;-73
2022/01/05 00:08:57;;;;;;;4.67;2.10;;;4.20;99.90;;;;;;5024927;28;20638;-73
2022/01/05 00:11:25;;;;;;;2.87;1.60;;;4.20;99.90;;;;;;5063910;28;20278;-73
2022/01/05 00:13:51;;;;;;;5.73;2.20;;;4.30;99.90;;;;;;5039287;28;20203;-73
2022/01/05 00:19:50;;;;;;;4.90;1.70;;;4.30;99.90;;;;;;5037318;28;20223;-73
2022/01/05 00:22:16;;;;;;;4.23;2.00;;;4.30;99.90;;;;;;5028362;28;20618;-73
2022/01/05 00:24:44;;;;;;;5.33;2.20;;;4.30;99.90;;;;;;5046556;28;20755;-73
2022/01/05 00:27:15;;;;;;;4.03;1.60;;;4.30;99.90;;;;;;5046272;28;20285;-73
2022/01/05 00:29:40;;;;;;;3.17;1.63;;;4.30;99.90;;;;;;5045135;28;20637;-73
2022/01/05 00:32:07;;;;;;;4.00;1.40;;;4.20;99.90;;;;;;5045356;28;20611;-73
2022/01/05 00:34:35;;;;;;;5.80;1.80;;;4.30;99.90;;;;;;5029253;28;20509;-73
2022/01/05 00:37:01;;;;;;;5.13;1.83;;;4.30;99.90;;;;;;5040760;28;20818;-73
2022/01/05 00:39:29;;;;;;;3.10;1.60;;;4.30;99.90;;;;;;5034570;28;20790;-73
2022/01/05 00:41:57;;;;;;;4.73;2.10;;;4.20;99.90;;;;;;5028637;28;20279;-73
2022/01/05 00:44:24;;;;;;;5.93;1.77;;;4.20;99.90;;;;;;5044958;28;20622;-73
2022/01/05 00:46:52;;;;;;;7.00;2.10;;;4.20;99.90;;;;;;5045910;28;21046;-72
2022/01/05 00:49:17;;;;;;;2.87;2.00;;;4.10;99.90;;;;;;5042573;28;20770;-73
2022/01/05 00:51:46;;;;;;;3.73;1.60;;;4.10;99.90;;;;;;5047662;28;20623;-74
2022/01/05 00:54:11;;;;;;;5.23;1.87;;;4.00;99.90;;;;;;5046544;28;20537;-74
2022/01/05 00:56:37;;;;;;;2.80;1.57;;;4.10;99.90;;;;;;5019101;28;20665;-74
2022/01/05 00:59:03;;;;;;;5.47;1.70;;;4.00;99.90;;;;;;5022754;28;20297;-73
2022/01/05 01:01:28;;;;;;;1.50;1.40;;;4.10;99.90;;;;;;5062267;28;20608;-74
2022/01/05 01:03:56;;;;;;;3.83;1.57;;;4.00;99.90;;;;;;5047388;28;20562;-74
2022/01/05 01:06:24;;;;;;;3.87;1.60;;;4.00;99.90;;;;;;5027752;28;20188;-73
2022/01/05 01:08:50;;;;;;;3.67;1.90;;;4.10;99.90;;;;;;5043093;28;21230;-73
2022/01/05 01:11:16;;;;;;;5.50;2.10;;;4.10;99.90;;;;;;5045104;28;20615;-74
2022/01/05 01:13:43;;;;;;;5.10;1.80;;;4.10;99.90;;;;;;5029594;28;20188;-73
2022/01/05 01:16:09;;;;;;;4.20;1.60;;;4.00;99.90;;;;;;5048609;28;20188;-73
2022/01/05 01:18:35;;;;;;;10.40;2.40;;;4.00;99.90;;;;;;5056047;28;21201;-73
2022/01/05 01:21:01;;;;;;;2.93;1.80;;;4.00;99.90;;;;;;5046449;28;20617;-73
2022/01/05 01:23:27;;;;;;;4.87;1.50;;;4.00;99.90;;;;;;5046433;28;20615;-74
2022/01/05 01:25:56;;;;;;;2.80;1.50;;;4.00;99.90;;;;;;5047150;28;20727;-74
2022/01/05 01:28:24;;;;;;;2.50;1.80;;;4.00;99.90;;;;;;5044098;28;20676;-73
2022/01/05 01:30:50;;;;;;;4.83;1.80;;;4.00;99.90;;;;;;5026639;28;20645;-73
2022/01/05 01:33:16;;;;;;;4.00;1.80;;;4.00;99.90;;;;;;5044181;28;20694;-73
2022/01/05 01:35:42;;;;;;;2.30;1.67;;;4.00;99.90;;;;;;5051334;28;20731;-73
2022/01/05 01:38:07;;;;;;;3.83;1.63;;;3.90;99.90;;;;;;5045646;28;20231;-73
2022/01/05 01:40:35;;;;;;;2.90;1.57;;;4.00;99.90;;;;;;5044028;28;20216;-73
2022/01/05 01:43:01;;;;;;;3.47;1.80;;;3.90;99.90;;;;;;5047046;28;20184;-73
2022/01/05 01:45:27;;;;;;;2.80;1.93;;;3.90;99.90;;;;;;5025274;28;20619;-73
2022/01/05 01:47:53;;;;;;;5.50;1.83;;;3.90;99.90;;;;;;5044300;28;20214;-73
2022/01/05 01:50:21;;;;;;;5.00;1.63;;;3.90;99.90;;;;;;5026850;28;21011;-73
2022/01/05 01:52:46;;;;;;;2.20;1.43;;;3.90;99.90;;;;;;5046094;28;20234;-73
2022/01/05 01:55:12;;;;;;;4.73;2.03;;;3.90;99.90;;;;;;5032396;28;21023;-73
2022/01/05 01:57:41;;;;;;;4.57;2.17;;;3.90;99.90;;;;;;5047027;28;20267;-73
2022/01/05 02:00:08;;;;;;;3.70;1.90;;;3.90;99.90;;;;;;5037044;28;20212;-74
2022/01/05 02:02:35;;;;;;;4.53;1.97;;;3.90;99.90;;;;;;5073018;28;20625;-73
2022/01/05 02:05:04;;;;;;;3.53;1.80;;;3.90;99.90;;;;;;5054200;28;20859;-74
2022/01/05 02:07:30;;;;;;;7.90;2.30;;;3.80;99.90;;;;;;5056867;28;20730;-73
2022/01/05 02:09:55;;;;;;;4.97;1.83;;;3.90;99.90;;;;;;5035999;28;20705;-73
2022/01/05 02:12:26;;;;;;;6.60;2.10;;;3.90;99.90;;;;;;5054289;28;20615;-74
2022/01/05 02:14:52;;;;;;;6.00;2.20;;;3.80;99.90;;;;;;5035724;28;20268;-74
2022/01/05 02:17:29;;;;;;;13.47;2.53;;;3.90;99.90;;;;;;5032842;28;21264;-73
2022/01/05 02:19:54;;;;;;;6.83;4.63;;;3.90;99.90;;;;;;5035925;28;20691;-74
2022/01/05 02:22:27;;;;;;;4.40;1.43;;;3.90;99.90;;;;;;5046979;28;20603;-73
2022/01/05 02:24:52;;;;;;;4.47;1.90;;;3.90;99.90;;;;;;5046212;28;20195;-73
2022/01/05 02:27:20;;;;;;;4.90;2.43;;;3.80;99.90;;;;;;5064499;28;20650;-73
2022/01/05 02:29:46;;;;;;;4.90;1.50;;;3.80;99.90;;;;;;5028948;28;20239;-73
2022/01/05 02:32:14;;;;;;;5.27;1.90;;;3.80;99.90;;;;;;5047225;28;20623;-74
2022/01/05 02:34:39;;;;;;;3.60;1.80;;;3.80;99.90;;;;;;5032852;28;20631;-74
2022/01/05 02:37:05;;;;;;;4.10;1.40;;;3.80;99.90;;;;;;5050711;28;20665;-74
2022/01/05 02:39:31;;;;;;;5.57;1.87;;;3.80;99.90;;;;;;5031773;28;20208;-73
2022/01/05 02:41:56;;;;;;;3.60;1.80;;;3.80;99.90;;;;;;5056503;28;20561;-74
2022/01/05 02:44:22;;;;;;;5.03;1.73;;;3.80;99.90;;;;;;5052998;28;20633;-73
2022/01/05 02:46:48;;;;;;;4.30;1.80;;;3.80;99.90;;;;;;5034405;28;20266;-73
2022/01/05 02:49:13;;;;;;;6.60;2.10;;;3.80;99.90;;;;;;5049016;28;20224;-73
2022/01/05 02:51:39;;;;;;;3.03;1.53;;;3.70;99.90;;;;;;5043471;28;20224;-73
2022/01/05 02:54:07;;;;;;;5.27;1.80;;;3.80;99.90;;;;;;5045921;28;20192;-74
2022/01/05 02:56:33;;;;;;;6.03;1.70;;;3.70;99.90;;;;;;5052846;28;20204;-73
2022/01/05 02:58:58;;;;;;;3.10;1.77;;;3.80;99.90;;;;;;5051456;28;20753;-74
2022/01/05 03:01:24;;;;;;;4.00;1.57;;;3.80;99.90;;;;;;5066749;28;20176;-74
2022/01/05 03:03:50;;;;;;;5.77;1.70;;;3.80;99.90;;;;;;5030902;28;20305;-74
2022/01/05 03:06:15;;;;;;;4.03;1.60;;;3.80;99.90;;;;;;5051082;28;20292;-74
2022/01/05 03:08:43;;;;;;;6.27;1.23;;;3.80;99.90;;;;;;5052997;28;20238;-73
2022/01/05 03:11:09;;;;;;;6.37;1.73;;;3.80;99.90;;;;;;5028415;28;20215;-73
2022/01/05 03:13:34;;;;;;;6.50;1.73;;;3.80;99.90;;;;;;5033756;28;20622;-73
2022/01/05 03:16:00;;;;;;;8.00;1.50;;;3.70;99.90;;;;;;5029780;28;20249;-73
2022/01/05 03:18:26;;;;;;;7.87;3.00;;;3.70;99.90;;;;;;5052549;28;20999;-73
2022/01/05 03:20:51;;;;;;;4.50;1.50;;;3.70;99.90;;;;;;5052571;28;20222;-73
2022/01/05 03:23:17;;;;;;;3.67;1.20;;;3.80;99.90;;;;;;5030834;28;20192;-73
2022/01/05 03:25:43;;;;;;;3.90;1.60;;;3.70;99.90;;;;;;5031822;28;20249;-73
2022/01/05 03:28:11;;;;;;;4.90;1.50;;;3.60;99.90;;;;;;5034304;28;20653;-72
2022/01/05 03:30:37;;;;;;;7.47;1.50;;;3.60;99.90;;;;;;5049475;28;20243;-72
2022/01/05 03:33:11;;;;;;;4.17;1.47;;;3.70;99.90;;;;;;5045172;28;20621;-73
2022/01/05 03:35:51;;;;;;;7.10;1.40;;;3.60;99.90;;;;;;5048188;28;21138;-73
2022/01/05 03:38:18;;;;;;;3.60;1.40;;;3.60;99.90;;;;;;5051105;28;20676;-73
2022/01/05 03:40:45;;;;;;;3.80;1.50;;;3.60;99.90;;;;;;5052721;28;20618;-73
2022/01/05 03:43:12;;;;;;;5.20;1.50;;;3.60;99.90;;;;;;5049642;28;21015;-73
2022/01/05 03:45:40;;;;;;;3.47;1.47;;;3.60;99.90;;;;;;5051467;28;20736;-73
2022/01/05 03:48:11;;;;;;;7.90;1.80;;;3.70;99.90;;;;;;5051430;28;20846;-74
2022/01/05 03:50:37;;;;;;;5.33;1.77;;;3.70;99.90;;;;;;5047364;28;20673;-74
2022/01/05 03:53:04;;;;;;;4.77;2.03;;;3.70;99.90;;;;;;5018907;28;20645;-73
2022/01/05 03:55:31;;;;;;;3.97;1.30;;;3.70;99.90;;;;;;5048742;28;20630;-73
2022/01/05 03:57:59;;;;;;;3.90;1.70;;;3.70;99.90;;;;;;5064212;28;20670;-74
2022/01/05 04:00:29;;;;;;;3.67;1.80;;;3.70;99.90;;;;;;5047653;28;20646;-74
2022/01/05 04:02:56;;;;;;;3.33;1.20;;;3.70;99.90;;;;;;5027096;28;21096;-73
2022/01/05 04:05:22;;;;;;;5.63;1.60;;;3.70;99.90;;;;;;5043915;28;20702;-73
2022/01/05 04:07:50;;;;;;;4.83;1.60;;;3.70;99.90;;;;;;5047662;28;20680;-73
2022/01/05 04:10:19;;;;;;;5.03;1.60;;;3.60;99.90;;;;;;5016221;28;20672;-74
2022/01/05 04:12:47;;;;;;;4.33;1.53;;;3.60;99.90;;;;;;5030068;28;20621;-73
2022/01/05 04:15:19;;;;;;;6.70;1.70;;;3.60;99.90;;;;;;5030611;28;20633;-73
2022/01/05 04:17:45;;;;;;;3.83;1.17;;;3.60;99.90;;;;;;5021993;28;21042;-73
2022/01/05 04:20:14;;;;;;;7.30;1.93;;;3.60;99.90;;;;;;5019897;28;20643;-74
2022/01/05 04:22:40;;;;;;;3.23;1.40;;;3.70;99.90;;;;;;5044954;28;20614;-73
2022/01/05 04:25:06;;;;;;;5.97;1.30;;;3.70;99.90;;;;;;5046121;28;20685;-73
2022/01/05 04:27:32;;;;;;;5.07;1.83;;;3.80;99.90;;;;;;5030136;28;20716;-72
2022/01/05 04:29:58;;;;;;;6.87;1.77;;;3.80;99.90;;;;;;5026262;28;20295;-73
2022/01/05 04:32:23;;;;;;;3.07;1.83;;;3.80;99.90;;;;;;5043289;28;21035;-73
2022/01/05 04:34:49;;;;;;;3.20;1.30;;;3.90;99.90;;;;;;5047544;28;20211;-73
2022/01/05 04:37:17;;;;;;;3.07;1.90;;;3.90;99.90;;;;;;5047478;28;20224;-72
2022/01/05 04:39:42;;;;;;;5.47;1.73;;;3.90;99.90;;;;;;5050510;28;20220;-73
2022/01/05 04:42:08;;;;;;;5.10;1.90;;;3.80;99.90;;;;;;5046664;28;20658;-74
2022/01/05 04:44:37;;;;;;;4.10;2.00;;;3.90;99.90;;;;;;5023286;28;20184;-74
2022/01/05 04:47:07;;;;;;;4.83;1.63;;;4.00;99.90;;;;;;5046974;28;20499;-73
2022/01/05 04:49:35;;;;;;;7.93;2.07;;;4.00;99.90;;;;;;5060769;28;20661;-73
2022/01/05 04:52:03;;;;;;;5.60;2.33;;;4.00;99.90;;;;;;5045949;28;20630;-72
2022/01/05 04:54:28;;;;;;;6.17;1.97;;;4.00;99.90;;;;;;5043012;28;20624;-73
2022/01/05 04:56:54;;;;;;;5.27;1.50;;;4.00;99.90;;;;;;5047932;28;20650;-73
2022/01/05 04:59:19;;;;;;;6.60;1.60;;;3.90;99.90;;;;;;5025365;28;20223;-73
2022/01/05 05:01:47;;;;;;;3.97;1.43;;;4.00;99.90;;;;;;5023688;28;20196;-73
2022/01/05 05:04:13;;;;;;;3.90;2.10;;;4.00;99.90;;;;;;5042403;28;20579;-73
2022/01/05 05:06:44;;;;;;;6.23;1.93;;;4.00;99.90;;;;;;5028501;28;20630;-73
2022/01/05 05:09:09;;;;;;;6.80;1.77;;;4.00;99.90;;;;;;5042731;28;20576;-73
2022/01/05 05:11:37;;;;;;;4.87;1.50;;;4.00;99.90;;;;;;5062311;28;20595;-73
2022/01/05 05:14:03;;;;;;;3.27;1.67;;;4.00;99.90;;;;;;5028481;28;20695;-74
2022/01/05 05:16:31;;;;;;;5.07;1.70;;;4.00;99.90;;;;;;5042911;28;20728;-73
2022/01/05 05:18:56;;;;;;;5.07;1.60;;;4.00;99.90;;;;;;5016504;28;20216;-74
2022/01/05 05:21:22;;;;;;;5.80;1.80;;;4.10;99.90;;;;;;5045651;28;20606;-73
2022/01/05 05:23:47;;;;;;;4.90;1.70;;;4.00;99.90;;;;;;5029499;28;20279;-73
2022/01/05 05:26:13;;;;;;;6.07;1.73;;;4.10;99.90;;;;;;5048743;28;20211;-74
2022/01/05 05:28:41;;;;;;;7.30;1.90;;;4.10;99.90;;;;;;5029045;28;20688;-74
2022/01/05 05:31:07;;;;;;;9.40;2.73;;;4.10;99.90;;;;;;5046858;28;20187;-74
2022/01/05 05:33:32;;;;;;;4.47;2.37;;;4.20;99.90;;;;;;5046315;28;20611;-74
2022/01/05 05:35:58;;;;;;;5.20;1.47;;;4.30;99.90;;;;;;5027899;28;20611;-74
2022/01/05 05:38:24;;;;;;;10.00;2.13;;;4.30;99.90;;;;;;5060725;28;20304;-74
2022/01/05 05:40:50;;;;;;;6.97;2.30;;;4.30;99.90;;;;;;5045419;28;20192;-73
2022/01/05 05:43:18;;;;;;;4.80;1.70;;;4.30;99.90;;;;;;5045542;28;20617;-73
2022/01/05 05:45:46;;;;;;;5.03;1.80;;;4.20;99.90;;;;;;5034009;28;20195;-73
2022/01/05 05:48:11;;;;;;;6.20;1.57;;;4.20;99.90;;;;;;5038074;28;21335;-73
2022/01/05 05:50:37;;;;;;;7.03;2.30;;;4.30;99.90;;;;;;5028125;28;20621;-74
2022/01/05 05:53:02;;;;;;;3.93;1.57;;;4.30;99.90;;;;;;5061575;28;20792;-73
2022/01/05 05:55:31;;;;;;;4.70;1.70;;;4.30;99.90;;;;;;5029356;28;20184;-74
2022/01/05 05:57:59;;;;;;;7.67;2.07;;;4.30;99.90;;;;;;5049844;28;20578;-74
2022/01/05 06:00:24;;;;;;;6.37;2.03;;;4.30;99.90;;;;;;5029816;28;20661;-73
2022/01/05 06:02:50;;;;;;;6.43;1.90;;;4.30;99.90;;;;;;5029987;28;20641;-74
2022/01/05 06:05:16;;;;;;;7.40;1.80;;;4.20;99.90;;;;;;5028513;28;20184;-70
2022/01/05 06:07:42;;;;;;;5.40;1.50;;;4.20;99.90;;;;;;5038223;28;20701;-71
2022/01/05 06:10:08;;;;;;;6.23;1.90;;;4.30;99.90;;;;;;5040394;28;20715;-73
2022/01/05 06:12:37;;;;;;;9.03;1.80;;;4.10;99.90;;;;;;5062000;28;20668;-73
2022/01/05 06:15:08;;;;;;;4.60;1.47;;;4.30;99.90;;;;;;5047569;28;20618;-73
2022/01/05 06:17:33;;;;;;;6.27;1.70;;;4.30;99.90;;;;;;5031418;28;20685;-73
2022/01/05 06:19:59;;;;;;;3.73;1.60;;;4.30;99.90;;;;;;5046230;28;20615;-73
2022/01/05 06:22:27;;;;;;;6.93;2.23;;;4.30;99.90;;;;;;5028172;28;20246;-73
2022/01/05 06:24:52;;;;;;;6.97;2.30;;;4.30;99.90;;;;;;5048742;28;20212;-74
2022/01/05 06:27:20;;;;;;;4.63;1.63;;;4.20;99.90;;;;;;5056587;28;21251;-74
2022/01/05 06:29:46;;;;;;;5.20;2.43;;;4.20;99.90;;;;;;5013058;28;20228;-73
2022/01/05 06:32:11;;;;;;;6.90;2.63;;;4.10;99.90;;;;;;5038220;28;21199;-74
2022/01/05 06:34:37;;;;;;;6.43;2.30;;;4.20;99.90;;;;;;5020848;28;20199;-74
2022/01/05 06:37:03;;;;;;;2.83;2.13;;;4.20;99.90;;;;;;5045715;28;20219;-73
2022/01/05 06:39:28;;;;;;;5.03;2.10;;;4.20;99.90;;;;;;5025057;28;20240;-73
2022/01/05 06:41:54;;;;;;;8.47;3.10;;;4.10;99.90;;;;;;5029306;28;20191;-73
2022/01/05 06:44:20;;;;;;;6.13;1.83;;;4.00;99.90;;;;;;5038036;28;20260;-73
2022/01/05 06:46:46;;;;;;;4.23;2.27;;;4.10;99.90;;;;;;5056339;28;20180;-74
2022/01/05 06:49:12;;;;;;;4.77;2.50;;;4.10;99.90;;;;;;5044636;28;20642;-73
2022/01/05 06:51:37;;;;;;;2.40;1.77;;;4.10;99.90;;;;;;5050165;28;20664;-73
2022/01/05 06:54:03;;;;;;;6.93;2.53;;;4.10;99.90;;;;;;5057411;28;20258;-73
2022/01/05 06:56:28;;;;;;;4.03;1.80;;;4.20;99.90;;;;;;5037437;28;20208;-74
2022/01/05 06:58:54;;;;;;;9.03;2.30;;;4.20;99.90;;;;;;5049685;28;20220;-73
2022/01/05 07:01:19;;;;;;;6.90;2.10;;;4.20;99.90;;;;;;5046907;28;20212;-74
2022/01/05 07:03:45;;;;;;;3.63;2.10;;;4.20;99.90;;;;;;5019192;28;20728;-73
2022/01/05 07:06:11;;;;;;;8.23;1.90;;;4.20;99.90;;;;;;5012328;28;20187;-74
2022/01/05 07:08:36;;;;;;;7.47;3.20;;;4.10;99.90;;;;;;5026500;28;20622;-73
2022/01/05 07:11:02;;;;;;;3.60;2.20;;;4.20;99.90;;;;;;5049088;28;20191;-73
2022/01/05 07:13:27;;;;;;;5.50;2.10;;;4.10;99.90;;;;;;5049795;28;20223;-73
2022/01/05 07:15:55;;;;;;;5.70;2.40;;;4.10;99.90;;;;;;5062663;28;20192;-73
2022/01/05 07:18:21;;;;;;;6.93;2.20;;;4.10;99.90;;;;;;5046041;28;20215;-72
2022/01/05 07:20:47;;;;;;;4.07;2.20;;;4.10;99.90;;;;;;5048213;28;20613;-73
2022/01/05 07:23:12;;;;;;;6.33;2.40;;;4.10;99.90;;;;;;5049609;28;20203;-73
2022/01/05 07:25:38;;;;;;;6.93;2.97;;;4.20;99.90;;;;;;5050497;28;20192;-73
2022/01/05 07:28:03;;;;;;;6.50;2.23;;;4.20;99.90;;;;;;5048387;28;20755;-72
2022/01/05 07:30:29;;;;;;;6.03;2.20;;;4.30;99.90;;;;;;5042423;28;20589;-73
2022/01/05 07:32:54;;;;;;;8.27;2.30;;;4.20;99.90;;;;;;5034277;28;20246;-73
2022/01/05 07:35:20;;;;;;;7.00;2.00;;;4.20;99.90;;;;;;5048404;28;20212;-72
2022/01/05 07:37:45;;;;;;;4.87;2.33;;;4.10;99.90;;;;;;5044494;28;20236;-73
2022/01/05 07:40:11;;;;;;;7.13;1.80;;;4.10;99.90;;;;;;5027568;28;20306;-73
2022/01/05 07:42:38;;;;;;;11.97;2.30;;;4.10;99.90;;;;;;5046466;28;20225;-73
2022/01/05 07:45:06;;;;;;;4.03;1.90;;;4.20;99.90;;;;;;5032088;28;20595;-72
2022/01/05 07:47:32;;;;;;;9.77;2.83;;;4.20;99.90;;;;;;5031365;28;20647;-73
2022/01/05 07:49:58;;;;;;;6.10;2.30;;;4.30;99.90;;;;;;5026023;28;20638;-73
2022/01/05 07:52:24;;;;;;;7.93;2.70;;;4.30;99.90;;;;;;5050165;28;20619;-73
2022/01/05 07:54:52;;;;;;;4.70;2.23;;;4.30;99.90;;;;;;5035546;28;20204;-73
2022/01/05 07:57:17;;;;;;;6.47;2.73;;;4.40;99.90;;;;;;5046534;28;22251;-73
2022/01/05 07:59:43;;;;;;;6.47;2.40;;;4.30;99.90;;;;;;5045620;28;21104;-73
2022/01/05 08:02:12;;;;;;;3.73;2.10;;;4.30;99.90;;;;;;5048049;28;20659;-73
2022/01/05 08:04:37;;;;;;;6.37;2.50;;;4.40;99.90;;;;;;5027991;28;20226;-72
2022/01/05 08:07:03;;;;;;;8.03;2.40;;;4.50;99.90;;;;;;5058001;28;20650;-73
2022/01/05 08:09:29;;;;;;;9.73;2.60;;;4.50;99.90;;;;;;5032966;28;20243;-73
2022/01/05 08:11:56;;;;;;;8.70;3.07;;;4.60;99.90;;;;;;5051808;28;20195;-73
2022/01/05 08:14:22;;;;;;;6.70;2.00;;;4.60;99.90;;;;;;5031483;28;20633;-73
2022/01/05 08:16:47;;;;;;;8.03;2.67;;;4.60;99.90;;;;;;5048077;28;20654;-73
2022/01/05 08:19:13;;;;;;;4.60;2.20;;;4.60;99.90;;;;;;5055684;28;20231;-73
2022/01/05 08:21:39;;;;;;;4.60;2.20;;;4.60;99.90;;;;;;5048967;28;20245;-72
2022/01/05 08:24:05;;;;;;;5.83;2.30;;;4.70;99.90;;;;;;5062873;28;20184;-73
2022/01/05 08:26:30;;;;;;;5.37;2.20;;;4.50;99.90;;;;;;5028039;28;20741;-73
2022/01/05 08:28:56;;;;;;;5.67;2.63;;;4.60;99.90;;;;;;5046634;28;20658;-72
2022/01/05 08:31:22;;;;;;;7.30;2.73;;;4.60;99.90;;;;;;5045709;28;20203;-73
2022/01/05 08:33:48;;;;;;;4.90;2.33;;;4.50;99.90;;;;;;5030235;28;20229;-73
2022/01/05 08:36:14;;;;;;;5.50;2.57;;;4.50;99.90;;;;;;5045972;28;20603;-72
2022/01/05 08:38:39;;;;;;;6.17;3.13;;;4.40;99.90;;;;;;5048065;28;20629;-73
2022/01/05 08:41:05;;;;;;;10.13;2.90;;;4.40;99.90;;;;;;5057548;28;20190;-72
2022/01/05 08:43:32;;;;;;;5.03;2.13;;;4.40;99.90;;;;;;5045933;28;20272;-73
2022/01/05 08:45:57;;;;;;;2.63;2.17;;;4.30;99.90;;;;;;5041840;28;21234;-73
2022/01/05 08:48:23;;;;;;;13.57;3.03;;;4.30;99.90;;;;;;5025999;28;20646;-72
2022/01/05 08:50:49;;;;;;;5.27;2.30;;;4.30;99.90;;;;;;5060437;28;20190;-73
2022/01/05 08:53:15;;;;;;;5.77;2.70;;;4.30;99.90;;;;;;5046830;28;20216;-73
2022/01/05 08:55:43;;;;;;;7.10;3.37;;;4.20;99.90;;;;;;5045246;28;20642;-73
2022/01/05 08:58:09;;;;;;;6.50;2.50;;;4.30;99.90;;;;;;5030165;28;20240;-73
2022/01/05 09:00:36;;;;;;;5.20;3.07;;;4.30;99.90;;;;;;5047246;28;20638;-73
2022/01/05 09:03:02;;;;;;;4.03;2.90;;;4.30;99.90;;;;;;5027328;28;20971;-73
2022/01/05 09:05:40;;;;;;;9.37;3.30;;;4.30;99.90;;;;;;5044107;28;20607;-73
2022/01/05 09:08:06;;;;;;;7.60;3.87;;;4.30;99.90;;;;;;5039619;28;20657;-73
2022/01/05 09:10:32;;;;;;;8.30;5.00;;;4.30;99.90;;;;;;5035166;28;20639;-73
2022/01/05 09:12:59;;;;;;;6.40;3.27;;;4.30;99.90;;;;;;5026859;28;20187;-73
2022/01/05 09:15:25;;;;;;;8.87;4.20;;;4.30;99.90;;;;;;5029675;28;21288;-73
2022/01/05 09:17:51;;;;;;;10.27;3.83;;;4.40;99.90;;;;;;5045143;28;20745;-72
2022/01/05 09:20:17;;;;;;;8.60;4.40;;;4.40;99.90;;;;;;5042535;28;20737;-73
2022/01/05 09:22:42;;;;;;;6.40;4.00;;;4.30;99.90;;;;;;5045302;28;20682;-72
2022/01/05 09:25:10;;;;;;;4.93;4.10;;;4.30;99.90;;;;;;5024063;28;20192;-73
2022/01/05 09:27:38;;;;;;;9.10;5.03;;;4.30;99.90;;;;;;5042447;28;20318;-73
2022/01/05 09:30:06;;;;;;;7.23;4.30;;;4.40;99.90;;;;;;5024709;28;20630;-73
2022/01/05 09:32:32;;;;;;;9.73;5.17;;;4.40;99.90;;;;;;5043885;28;20692;-72
2022/01/05 09:34:57;;;;;;;7.47;4.43;;;4.40;99.90;;;;;;5045610;28;20653;-73
2022/01/05 09:37:27;;;;;;;5.30;4.07;;;4.50;99.90;;;;;;5026864;28;20228;-73
2022/01/05 09:42:39;;;;;;;6.20;3.93;;;4.40;99.90;;;;;;5043048;28;20961;-73
2022/01/05 09:45:27;;;;;;;7.10;4.23;;;4.60;99.90;;;;;;5045874;28;20617;-73
2022/01/05 09:48:11;;;;;;;8.83;4.13;;;4.60;99.90;;;;;;5029612;28;20650;-73
2022/01/05 09:50:44;;;;;;;7.50;4.83;;;4.60;99.90;;;;;;5025103;28;20776;-72
2022/01/05 09:53:11;;;;;;;6.37;4.83;;;4.70;99.90;;;;;;5048269;28;20982;-73
2022/01/05 09:55:38;;;;;;;7.73;4.47;;;4.70;99.90;;;;;;5047853;28;21225;-73
2022/01/05 09:58:03;;;;;;;9.40;5.60;;;4.70;99.90;;;;;;5044772;28;20711;-73
2022/01/05 10:00:29;;;;;;;7.60;5.40;;;4.80;99.90;;;;;;5027073;28;20733;-73
2022/01/05 10:02:55;;;;;;;9.60;5.63;;;4.80;99.90;;;;;;5061647;28;21736;-72
2022/01/05 10:05:20;;;;;;;5.63;5.10;;;4.80;99.90;;;;;;5029042;28;20184;-73
2022/01/05 10:07:46;;;;;;;6.90;4.73;;;5.10;99.90;;;;;;5044231;28;20208;-72
2022/01/05 10:10:12;;;;;;;10.10;5.47;;;4.90;99.90;;;;;;5023554;28;20245;-73
2022/01/05 10:12:38;;;;;;;8.33;5.07;;;4.90;99.90;;;;;;5028531;28;21165;-73
2022/01/05 10:15:04;;;;;;;9.53;5.47;;;4.90;99.90;;;;;;5026642;28;20617;-73
2022/01/05 10:17:34;;;;;;;6.63;5.00;;;5.00;99.90;;;;;;5046685;28;20211;-73
2022/01/05 10:20:06;;;;;;;8.60;5.30;;;5.00;99.90;;;;;;5024136;28;20692;-73
2022/01/05 10:22:40;;;;;;;9.63;5.40;;;4.90;99.90;;;;;;5044416;28;20620;-73
2022/01/05 10:25:15;;;;;;;9.33;6.60;;;4.90;99.90;;;;;;5048185;28;20674;-73
2022/01/05 10:27:41;;;;;;;9.90;6.27;;;5.00;99.90;;;;;;5043433;28;20649;-74
2022/01/05 10:30:10;;;;;;;7.40;5.20;;;5.00;99.90;;;;;;5043607;28;20645;-72
2022/01/05 10:32:36;;;;;;;8.40;6.10;;;5.00;99.90;;;;;;5037993;28;20623;-73
2022/01/05 10:35:10;;;;;;;8.63;6.33;;;5.00;99.90;;;;;;5045629;28;20664;-74
2022/01/05 10:37:39;;;;;;;14.27;6.80;;;5.00;99.90;;;;;;5056289;28;20669;-72
2022/01/05 10:40:06;;;;;;;8.23;5.43;;;5.00;99.90;;;;;;5022123;28;20618;-72
2022/01/05 10:42:33;;;;;;;8.43;6.37;;;5.10;99.90;;;;;;5050495;28;20630;-72
2022/01/05 10:44:59;;;;;;;9.33;6.10;;;5.20;99.90;;;;;;5049601;28;20641;-73
2022/01/05 10:47:25;;;;;;;9.63;6.40;;;5.30;99.90;;;;;;5028074;28;20638;-72
2022/01/05 10:49:52;;;;;;;7.87;6.40;;;5.20;99.90;;;;;;5033304;28;20227;-73
2022/01/05 10:52:28;;;;;;;11.70;6.00;;;5.20;99.90;;;;;;5047165;28;21206;-73
2022/01/05 10:55:16;;;;;;;12.43;6.23;;;5.30;99.90;;;;;;5047610;28;20630;-73
2022/01/05 10:57:54;;;;;;;10.33;6.30;;;5.40;99.90;;;;;;5048998;28;20667;-73
2022/01/05 11:01:02;;;;;;;8.60;5.27;;;5.30;99.90;;;;;;5049763;28;20665;-73
2022/01/05 11:03:39;;;;;;;8.50;5.93;;;5.30;99.90;;;;;;5005353;28;20715;-73
2022/01/05 11:06:12;;;;;;;7.20;5.10;;;5.30;99.90;;;;;;5022540;28;20621;-73
2022/01/05 11:08:57;;;;;;;7.87;5.73;;;5.40;99.90;;;;;;5041985;28;20654;-72
2022/01/05 11:11:41;;;;;;;7.20;4.70;;;5.40;99.90;;;;;;5046029;28;21069;-73
2022/01/05 11:14:18;;;;;;;7.20;5.03;;;5.40;99.90;;;;;;5045956;28;20614;-73
2022/01/05 11:16:48;;;;;;;9.20;4.60;;;5.50;99.90;;;;;;5027438;28;20760;-72
2022/01/05 11:19:15;;;;;;;7.93;4.30;;;5.50;99.90;;;;;;5029089;28;20680;-73
2022/01/05 11:21:53;;;;;;;6.90;3.77;;;5.50;99.90;;;;;;5045397;28;20736;-72
2022/01/05 11:24:19;;;;;;;5.70;3.90;;;5.50;99.90;;;;;;5044266;28;21205;-73
2022/01/05 11:26:45;;;;;;;4.87;3.90;;;5.50;99.90;;;;;;5060084;28;20607;-72
2022/01/05 11:29:11;;;;;;;6.40;3.80;;;5.40;99.90;;;;;;5042624;28;20642;-73
2022/01/05 11:31:37;;;;;;;6.00;3.60;;;5.30;99.90;;;;;;5045582;28;20474;-73
2022/01/05 11:34:02;;;;;;;5.87;3.53;;;5.30;99.90;;;;;;5045929;28;20188;-73
2022/01/05 11:36:28;;;;;;;7.20;3.27;;;5.30;99.90;;;;;;5043824;28;20185;-73
2022/01/05 11:38:53;;;;;;;5.83;3.70;;;5.20;99.90;;;;;;5050417;28;20220;-73
2022/01/05 11:41:20;;;;;;;4.63;4.17;;;5.30;99.90;;;;;;5060375;28;20188;-74
2022/01/05 11:43:47;;;;;;;5.77;3.93;;;5.20;99.90;;;;;;5053536;28;20278;-73
2022/01/05 11:46:20;;;;;;;5.40;3.50;;;5.30;99.90;;;;;;5044118;28;20615;-73
2022/01/05 11:49:10;;;;;;;4.53;3.13;;;5.30;99.90;;;;;;5026394;28;20638;-73
2022/01/05 11:51:42;;;;;;;5.50;3.00;;;5.30;99.90;;;;;;5029282;28;20650;-73
2022/01/05 11:54:20;;;;;;;4.80;3.40;;;5.30;99.90;;;;;;5044512;28;21150;-73
2022/01/05 11:56:55;;;;;;;3.50;2.90;;;5.30;99.90;;;;;;5061907;28;20703;-73
2022/01/05 11:59:22;;;;;;;3.77;2.80;;;5.30;99.90;;;;;;5045297;28;20637;-73
2022/01/05 12:01:59;;;;;;;3.23;2.93;;;5.30;99.90;;;;;;5021685;28;20603;-73
2022/01/05 12:04:25;;;;;;;3.40;2.53;;;5.40;99.90;;;;;;5033711;28;20685;-73
2022/01/05 12:06:51;;;;;;;3.03;2.80;;;5.50;99.90;;;;;;5049639;28;20676;-73
2022/01/05 12:09:25;;;;;;;3.33;2.50;;;5.40;99.90;;;;;;5045831;28;20638;-73
2022/01/05 12:11:51;;;;;;;5.57;2.50;;;5.40;99.90;;;;;;5051323;28;20688;-73
2022/01/05 12:14:22;;;;;;;3.93;1.97;;;5.40;99.90;;;;;;5027788;28;20642;-73
2022/01/05 12:17:06;;;;;;;2.83;1.70;;;5.50;99.90;;;;;;5037335;28;20548;-73
2022/01/05 12:19:55;;;;;;;1.67;1.40;;;5.50;99.90;;;;;;5040480;28;21325;-73
2022/01/05 12:22:25;;;;;;;2.00;1.60;;;5.50;99.90;;;;;;5036933;28;20642;-73
2022/01/05 12:24:56;;;;;;;1.87;1.30;;;5.50;99.90;;;;;;5054146;28;20582;-73
2022/01/05 12:27:35;;;;;;;3.03;1.13;;;5.40;99.90;;;;;;5052185;28;20747;-73
2022/01/05 12:30:21;;;;;;;1.87;1.70;;;5.40;99.90;;;;;;5040430;28;20639;-73
2022/01/05 12:32:59;;;;;;;1.00;1.00;;;5.40;99.90;;;;;;5042947;28;20852;-73
2022/01/05 12:35:27;;;;;;;1.23;1.17;;;5.40;99.90;;;;;;5021425;28;21391;-73
2022/01/05 12:38:04;;;;;;;1.10;0.90;;;5.40;99.90;;;;;;5055383;28;21304;-73
2022/01/05 12:40:46;;;;;;;1.00;0.90;;;5.40;99.90;;;;;;5025387;28;20622;-73
2022/01/05 12:43:12;;;;;;;2.10;0.93;;;5.30;99.90;;;;;;5052906;28;21044;-72
2022/01/05 12:45:52;;;;;;;0.67;0.67;;;5.30;99.90;;;;;;5043719;28;21236;-73
2022/01/05 12:48:53;;;;;;;1.00;0.90;;;5.30;99.90;;;;;;5024843;28;20689;-72
2022/01/05 12:51:43;;;;;;;1.67;0.80;;;5.30;99.90;;;;;;5042778;28;20623;-73
2022/01/05 12:54:18;;;;;;;2.47;1.07;;;5.30;99.90;;;;;;5041624;28;20609;-73
2022/01/05 12:56:50;;;;;;;1.57;1.00;;;5.30;99.90;;;;;;5042016;28;20654;-73
2022/01/05 12:59:15;;;;;;;1.37;1.27;;;5.30;99.90;;;;;;5041993;28;20754;-73
2022/01/05 13:01:43;;;;;;;1.17;1.07;;;5.30;99.90;;;;;;5038622;28;20713;-73
2022/01/05 13:04:11;;;;;;;3.53;2.00;;;5.30;99.90;;;;;;5023135;28;20188;-73
2022/01/05 13:06:39;;;;;;;1.40;1.27;;;5.40;99.90;;;;;;5041233;28;20717;-73
2022/01/05 13:09:10;;;;;;;2.87;1.10;;;5.40;99.90;;;;;;5058808;28;20650;-73